Time;durP1;ratioP1;P1;durP2;ratioP2;P2;SDS_P1;SDS_P2;PMS_P1;PMS_P2;Temp;Humidity;BMP_temperature;BMP_pressure;BME280_temperature;BME280_humidity;BME280_pressure;Samples;Min_cycle;Max_cycle;Signal;HPM_P1;HPM_P2
2022/08/15 00:01:07;;;;;;;7.10;4.13;;;22.70;55.20;;;18.80;79.38;94888.41;4950818;28;20027;-53
2022/08/15 00:03:44;;;;;;;6.10;4.38;;;22.50;55.60;;;18.65;80.22;94881.72;4934065;28;20414;-50
2022/08/15 00:06:21;;;;;;;7.15;3.72;;;22.30;56.00;;;18.45;80.25;94872.53;4934087;29;20114;-54
2022/08/15 00:08:54;;;;;;;5.55;4.38;;;22.20;56.50;;;18.42;81.07;94876.69;4950554;28;20027;-54
2022/08/15 00:11:33;;;;;;;8.90;3.90;;;22.10;56.80;;;18.36;82.30;94875.31;4948206;28;20034;-52
2022/08/15 00:14:13;;;;;;;7.68;4.38;;;21.90;57.30;;;18.18;82.78;94871.19;4935008;29;20072;-48
2022/08/15 00:16:43;;;;;;;7.63;4.32;;;21.80;57.80;;;18.17;83.02;94869.59;4933975;29;20054;-48
2022/08/15 00:19:29;;;;;;;5.93;4.38;;;21.80;57.90;;;18.13;83.12;94869.47;4933610;29;20126;-48
2022/08/15 00:22:02;;;;;;;7.63;4.78;;;21.70;58.30;;;18.04;84.47;94869.53;4935177;29;20027;-53
2022/08/15 00:24:36;;;;;;;6.28;4.88;;;21.50;58.50;;;17.97;85.57;94863.13;4934013;29;20034;-52
2022/08/15 00:27:07;;;;;;;7.65;4.88;;;21.50;58.90;;;17.89;85.82;94863.94;4935017;29;20031;-53
2022/08/15 00:29:37;;;;;;;5.82;5.00;;;21.40;59.40;;;17.82;86.64;94872.56;4934326;29;20110;-50
2022/08/15 00:32:25;;;;;;;7.40;5.63;;;21.40;59.50;;;17.71;86.68;94861.38;4923278;29;20031;-53
2022/08/15 00:34:54;;;;;;;8.18;5.30;;;21.30;60.10;;;17.68;87.37;94855.84;4930108;28;20486;-50
2022/08/15 00:37:20;;;;;;;7.55;5.60;;;21.20;59.90;;;17.58;87.62;94865.09;4969240;28;20042;-50
2022/08/15 00:40:02;;;;;;;6.60;4.63;;;21.20;60.10;;;17.50;88.24;94860.53;4969672;28;20018;-49
2022/08/15 00:42:31;;;;;;;13.02;6.28;;;21.10;60.90;;;17.49;88.83;94861.66;4970166;28;20034;-49
2022/08/15 00:44:58;;;;;;;7.00;5.43;;;21.10;60.60;;;17.49;87.85;94867.06;4969393;28;20033;-50
2022/08/15 00:47:24;;;;;;;10.10;6.38;;;21.10;61.10;;;17.44;87.95;94869.91;4954211;28;20405;-53
2022/08/15 00:49:56;;;;;;;9.20;6.07;;;21.00;61.30;;;17.41;88.38;94868.66;4955272;28;20034;-51
2022/08/15 00:52:28;;;;;;;7.20;5.63;;;21.00;61.80;;;17.37;88.03;94872.34;4933266;29;20031;-50
2022/08/15 00:55:12;;;;;;;9.48;6.25;;;21.00;62.10;;;17.31;88.99;94869.81;4930103;29;20459;-51
2022/08/15 00:57:48;;;;;;;7.15;5.10;;;21.00;62.20;;;17.23;89.31;94870.63;4911147;29;20114;-49
2022/08/15 01:00:25;;;;;;;6.03;4.00;;;20.90;62.30;;;17.13;89.07;94868.31;4929584;29;20435;-49
2022/08/15 01:03:03;;;;;;;5.53;4.00;;;20.90;62.40;;;17.08;88.34;94871.19;4915438;29;20111;-48
2022/08/15 01:05:30;;;;;;;8.52;4.97;;;20.80;62.50;;;17.04;88.70;94873.72;4913422;29;20581;-50
2022/08/15 01:07:56;;;;;;;6.70;4.45;;;20.80;62.40;;;17.04;89.01;94875.63;4914124;29;20019;-49
2022/08/15 01:10:25;;;;;;;6.82;3.88;;;20.80;62.60;;;17.03;88.82;94872.16;4913906;29;20118;-49
2022/08/15 01:12:57;;;;;;;4.78;3.55;;;20.70;62.80;;;17.03;88.64;94868.69;4915158;29;20067;-51
2022/08/15 01:15:24;;;;;;;6.55;4.25;;;20.70;63.00;;;17.02;88.94;94878.66;4939523;28;20034;-49
2022/08/15 01:17:57;;;;;;;6.05;4.18;;;20.60;62.90;;;17.00;88.95;94866.63;4917479;29;20031;-50
2022/08/15 01:20:34;;;;;;;4.47;3.70;;;20.60;63.30;;;16.96;89.10;94866.50;4949119;28;20022;-52
2022/08/15 01:23:44;;;;;;;4.95;3.55;;;20.60;63.60;;;16.93;88.79;94871.72;4949287;28;20030;-48
2022/08/15 01:26:15;;;;;;;7.70;3.80;;;20.60;63.50;;;16.90;88.78;94867.78;4932434;29;20030;-54
2022/08/15 01:28:54;;;;;;;5.45;3.63;;;20.60;63.20;;;16.87;89.16;94866.50;4933126;29;20474;-53
2022/08/15 01:31:23;;;;;;;6.32;3.28;;;20.60;63.60;;;16.86;88.41;94873.00;4899041;29;20052;-49
2022/08/15 01:33:57;;;;;;;5.82;3.45;;;20.50;63.30;;;16.83;88.82;94881.72;4924895;29;20042;-52
2022/08/15 01:36:27;;;;;;;6.22;3.80;;;20.50;63.60;;;16.82;89.02;94873.97;4929073;29;20031;-47
2022/08/15 01:39:40;;;;;;;6.22;3.80;;;20.50;63.50;;;16.78;89.47;94867.66;4929608;29;20039;-53
2022/08/15 01:42:38;;;;;;;6.93;4.10;;;20.50;63.90;;;16.73;89.57;94860.50;4913360;29;20163;-54
2022/08/15 01:45:34;;;;;;;4.95;3.80;;;20.50;63.80;;;16.68;90.20;94857.22;4913393;29;20364;-53
2022/08/15 01:48:40;;;;;;;8.07;4.22;;;20.40;63.90;;;16.64;89.57;94857.06;4926964;29;20071;-48
2022/08/15 01:51:10;;;;;;;6.00;4.05;;;20.40;63.90;;;16.58;89.43;94866.41;4912823;29;20453;-53
2022/08/15 01:54:03;;;;;;;5.57;4.47;;;20.40;63.80;;;16.52;89.80;94860.41;4914823;29;20051;-54
2022/08/15 01:56:39;;;;;;;7.07;4.15;;;20.30;64.30;;;16.48;90.44;94859.44;4930945;29;20043;-54
2022/08/15 01:59:18;;;;;;;6.20;4.50;;;20.30;64.30;;;16.43;91.02;94854.25;4932547;29;20389;-51
2022/08/15 02:02:06;;;;;;;8.98;4.90;;;20.30;64.50;;;16.39;90.64;94851.44;4932277;29;20097;-54
2022/08/15 02:04:41;;;;;;;5.75;4.60;;;20.20;64.60;;;16.37;91.12;94852.84;4932094;29;20031;-53
2022/08/15 02:07:18;;;;;;;8.40;5.28;;;20.20;64.80;;;16.31;91.29;94854.91;4933606;29;20518;-50
2022/08/15 02:09:50;;;;;;;11.23;5.60;;;20.10;64.90;;;16.26;91.81;94856.97;4931589;29;20035;-52
2022/08/15 02:12:33;;;;;;;7.57;5.10;;;20.10;65.00;;;16.23;91.95;94857.59;4932226;29;20027;-50
2022/08/15 02:15:20;;;;;;;7.90;5.28;;;20.10;65.30;;;16.20;92.13;94861.69;4932052;29;20043;-54
2022/08/15 02:17:48;;;;;;;8.18;5.13;;;20.00;65.30;;;16.17;92.65;94865.03;4932044;29;20027;-51
2022/08/15 02:20:23;;;;;;;10.10;5.90;;;20.00;65.20;;;16.16;92.88;94866.13;4932311;29;20486;-51
2022/08/15 02:22:54;;;;;;;8.98;5.90;;;19.90;65.50;;;16.13;93.18;94874.81;4932553;29;20034;-52
2022/08/15 02:25:24;;;;;;;9.40;6.13;;;19.90;65.80;;;16.12;93.16;94870.56;4932703;29;20385;-52
2022/08/15 02:27:51;;;;;;;9.25;5.78;;;19.90;66.00;;;16.09;93.47;94871.97;4967041;28;20037;-54
2022/08/15 02:30:28;;;;;;;7.35;5.50;;;19.90;66.00;;;16.10;93.91;94870.09;4950633;29;20033;-52
2022/08/15 02:33:01;;;;;;;8.27;5.97;;;19.90;66.50;;;16.08;93.38;94867.72;4951817;29;20150;-52
2022/08/15 02:35:31;;;;;;;;;;;19.90;66.40;;;16.05;93.26;94868.34;4966785;28;20033;-51
2022/08/15 02:38:01;;;;;;;10.02;5.40;;;19.80;65.30;;;16.03;93.23;94873.25;4951022;29;19906;-51
2022/08/15 02:40:28;;;;;;;7.65;5.70;;;19.90;65.80;;;16.05;93.52;94875.63;4951082;29;20022;-51
2022/08/15 02:42:55;;;;;;;9.43;6.35;;;19.90;66.20;;;16.07;94.05;94868.81;4966914;28;20437;-52
2022/08/15 02:45:21;;;;;;;7.55;6.28;;;19.90;67.20;;;16.09;93.75;94869.28;4950205;28;20077;-53
2022/08/15 02:47:47;;;;;;;7.88;6.57;;;19.90;66.60;;;16.11;93.85;94864.41;4950874;28;20031;-54
2022/08/15 02:50:17;;;;;;;8.65;6.15;;;20.00;66.80;;;16.14;94.14;94873.75;4952126;29;20058;-54
2022/08/15 02:52:52;;;;;;;10.02;6.50;;;20.00;67.10;;;16.17;94.28;94870.41;4952201;28;20041;-52
2022/08/15 02:55:21;;;;;;;9.85;6.38;;;20.00;67.30;;;16.18;95.01;94870.09;4950136;28;20093;-49
2022/08/15 02:57:47;;;;;;;8.32;6.40;;;20.10;67.10;;;16.22;95.14;94872.16;4965518;28;20057;-55
2022/08/15 03:00:19;;;;;;;7.93;5.85;;;20.10;67.10;;;16.26;94.82;94873.88;4931793;29;20113;-54
2022/08/15 03:03:00;;;;;;;8.23;6.00;;;20.10;67.40;;;16.28;94.73;94870.88;4933128;29;20055;-54
2022/08/15 03:05:31;;;;;;;7.85;5.93;;;20.10;67.30;;;16.28;94.62;94865.50;4931695;29;20110;-54
2022/08/15 03:07:58;;;;;;;9.32;4.95;;;20.10;67.30;;;16.25;95.03;94866.13;4931890;29;20058;-54
2022/08/15 03:10:25;;;;;;;11.45;6.63;;;20.10;67.10;;;16.23;94.93;94860.28;4933093;29;20529;-53
2022/08/15 03:13:07;;;;;;;7.85;6.00;;;20.10;67.20;;;16.21;94.52;94862.50;4931746;29;20035;-53
2022/08/15 03:15:56;;;;;;;8.87;6.00;;;20.00;67.30;;;16.15;94.91;94845.75;4931250;29;20118;-54
2022/08/15 03:18:34;;;;;;;11.23;6.40;;;20.00;67.30;;;16.09;95.29;94850.50;4931874;29;20278;-50
2022/08/15 03:21:07;;;;;;;8.32;6.43;;;20.00;67.40;;;16.02;95.90;94844.03;4934990;29;20031;-54
2022/08/15 03:23:48;;;;;;;12.13;7.70;;;19.90;67.40;;;16.02;95.88;94847.50;4936446;29;20027;-54
2022/08/15 03:26:35;;;;;;;9.32;7.22;;;19.90;67.60;;;16.00;95.87;94838.97;4935790;28;20094;-51
2022/08/15 03:29:04;;;;;;;10.77;7.30;;;19.80;67.70;;;15.96;95.48;94829.97;4935202;28;20685;-49
2022/08/15 03:31:35;;;;;;;12.93;7.57;;;19.70;67.50;;;15.90;95.43;94823.16;4935170;29;20419;-51
2022/08/15 03:34:02;;;;;;;14.35;8.05;;;19.70;67.80;;;15.84;95.42;94827.13;4934732;29;20450;-54
2022/08/15 03:36:36;;;;;;;10.35;7.60;;;19.70;67.70;;;15.81;96.22;94822.38;4934416;29;20383;-50
2022/08/15 03:39:08;;;;;;;15.07;8.73;;;19.60;68.10;;;15.79;96.36;94816.53;4952404;28;20509;-53
2022/08/15 03:41:35;;;;;;;16.77;8.73;;;19.60;68.20;;;15.69;97.90;94807.69;4970361;28;20029;-51
2022/08/15 03:44:01;;;;;;;12.70;9.40;;;19.60;68.00;;;15.70;99.13;94811.19;4954059;28;20129;-50
2022/08/15 03:46:29;;;;;;;12.60;8.80;;;19.50;68.40;;;15.75;98.82;94821.75;4954373;28;20102;-52
2022/08/15 03:48:56;;;;;;;12.88;8.18;;;19.50;68.60;;;15.75;97.96;94831.69;4953795;28;20034;-48
2022/08/15 03:51:29;;;;;;;13.52;8.45;;;19.50;68.70;;;15.73;97.22;94838.19;4969808;28;20027;-49
2022/08/15 03:54:03;;;;;;;12.05;8.88;;;19.50;68.90;;;15.66;97.59;94839.69;4958510;28;20030;-52
2022/08/15 03:56:35;;;;;;;11.48;8.05;;;19.50;68.90;;;15.64;97.26;94850.78;4965159;28;20055;-54
2022/08/15 03:59:01;;;;;;;12.80;8.32;;;19.50;68.90;;;15.61;96.68;94848.72;4934149;29;20029;-52
2022/08/15 04:01:38;;;;;;;15.43;9.60;;;19.40;68.60;;;15.55;96.41;94851.88;4935443;29;20035;-54
2022/08/15 04:04:05;;;;;;;13.45;9.48;;;19.40;69.70;;;15.50;96.24;94847.41;4949707;28;20034;-52
2022/08/15 04:06:35;;;;;;;17.48;9.48;;;19.40;68.70;;;15.41;96.43;94838.56;4960819;28;20029;-50
2022/08/15 04:09:10;;;;;;;16.38;9.77;;;19.30;68.60;;;15.35;96.33;94847.84;4967067;28;20514;-48
2022/08/15 04:11:38;;;;;;;19.20;10.48;;;19.30;68.80;;;15.31;95.86;94853.06;4935555;29;20026;-50
2022/08/15 04:14:08;;;;;;;17.15;10.05;;;19.30;68.80;;;15.24;95.76;94848.16;4949430;28;20023;-50
2022/08/15 04:16:40;;;;;;;17.38;9.65;;;19.20;68.80;;;15.19;96.05;94861.69;4935398;29;20501;-50
2022/08/15 04:19:08;;;;;;;19.08;10.45;;;19.10;69.00;;;15.17;96.60;94866.59;4935180;29;20035;-49
2022/08/15 04:21:37;;;;;;;15.43;9.65;;;19.10;68.80;;;15.15;97.26;94865.31;4935335;29;20501;-49
2022/08/15 04:24:08;;;;;;;17.08;10.27;;;19.10;69.00;;;15.14;97.28;94861.84;4934660;29;20043;-50
2022/08/15 04:27:00;;;;;;;18.58;10.45;;;19.00;69.10;;;15.09;96.70;94864.66;4934939;29;20019;-49
2022/08/15 04:29:40;;;;;;;24.33;11.32;;;19.00;69.10;;;15.02;97.39;94870.47;4934824;29;20046;-49
2022/08/15 04:32:13;;;;;;;17.30;10.98;;;18.90;69.20;;;15.02;97.68;94881.22;4955867;28;20481;-49
2022/08/15 04:34:47;;;;;;;16.77;10.38;;;18.90;70.10;;;15.01;98.02;94878.81;4953857;28;20545;-48
2022/08/15 04:37:13;;;;;;;19.35;11.43;;;18.90;69.30;;;15.02;98.27;94893.84;4954039;28;20027;-51
2022/08/15 04:39:41;;;;;;;23.50;12.25;;;18.90;69.40;;;15.10;100.00;94892.28;4953883;28;20496;-48
2022/08/15 04:42:10;;;;;;;22.38;11.57;;;18.90;69.60;;;15.14;100.00;94893.25;4953744;28;20031;-49
2022/08/15 04:44:39;;;;;;;22.42;11.48;;;19.00;69.90;;;15.14;99.51;94893.25;4952481;28;20490;-48
2022/08/15 04:47:08;;;;;;;26.77;13.40;;;19.00;69.70;;;15.13;99.83;94887.06;4952966;28;20023;-53
2022/08/15 04:49:34;;;;;;;25.42;13.15;;;19.00;70.00;;;15.15;99.36;94886.78;4952667;28;20027;-55
2022/08/15 04:52:19;;;;;;;20.75;12.15;;;19.10;69.80;;;15.14;99.01;94880.63;4968323;28;20027;-54
2022/08/15 04:54:46;;;;;;;22.92;11.43;;;19.00;70.00;;;15.13;98.37;94886.28;4954277;28;20046;-54
2022/08/15 04:57:15;;;;;;;19.67;11.00;;;19.10;69.70;;;15.13;98.38;94884.41;4937437;23;20055;-46
2022/08/15 04:59:41;;;;;;;15.68;10.23;;;19.10;69.60;;;15.14;98.72;94880.63;4894623;29;20394;-45
2022/08/15 05:02:12;;;;;;;23.00;12.48;;;19.10;69.60;;;15.21;98.72;94883.66;4885339;29;20028;-45
2022/08/15 05:04:41;;;;;;;24.83;12.20;;;19.20;69.80;;;15.41;99.95;94882.28;4862031;29;20036;-48
2022/08/15 05:07:08;;;;;;;20.60;12.38;;;19.20;69.70;;;15.58;100.00;94888.81;4880580;29;20039;-45
2022/08/15 05:09:34;;;;;;;16.35;11.57;;;19.30;69.80;;;15.75;100.00;94891.53;4893473;29;20164;-46
2022/08/15 05:12:00;;;;;;;17.85;12.25;;;19.40;69.80;;;16.01;100.00;94890.78;4877666;29;20498;-46
2022/08/15 05:14:26;;;;;;;18.42;12.18;;;19.50;69.80;;;16.14;99.87;94892.53;4890626;29;20043;-47
2022/08/15 05:16:54;;;;;;;16.48;11.27;;;19.70;69.80;;;16.34;99.63;94902.63;4895622;29;20020;-46
2022/08/15 05:19:20;;;;;;;15.50;10.30;;;19.80;69.80;;;16.52;98.79;94906.09;4894867;29;20032;-48
2022/08/15 05:21:47;;;;;;;15.63;11.20;;;20.00;69.60;;;16.65;98.11;94907.03;4908258;29;20024;-47
2022/08/15 05:24:13;;;;;;;13.85;10.50;;;20.20;69.60;;;16.72;96.88;94906.56;4892427;29;20055;-49
2022/08/15 05:26:39;;;;;;;15.82;10.00;;;20.30;69.30;;;16.90;97.06;94902.75;4892709;29;20064;-45
2022/08/15 05:29:06;;;;;;;14.15;8.73;;;20.50;69.20;;;17.07;96.20;94902.69;4858328;29;21259;-43
2022/08/15 05:31:34;;;;;;;13.40;9.15;;;20.70;69.00;;;17.32;95.40;94894.81;4889362;29;20107;-46
2022/08/15 05:34:01;;;;;;;11.20;8.55;;;20.90;68.90;;;17.61;94.65;94895.94;4877674;29;20032;-45
2022/08/15 05:36:35;;;;;;;11.38;8.55;;;21.20;68.80;;;17.79;89.12;94892.84;4890471;29;20024;-44
2022/08/15 05:39:24;;;;;;;9.27;6.97;;;21.40;68.60;;;18.05;89.07;94891.91;4891431;29;20035;-48
2022/08/15 05:42:17;;;;;;;8.32;6.88;;;21.70;68.10;;;18.34;86.73;94896.44;4906411;29;20024;-45
2022/08/15 05:45:58;;;;;;;9.63;6.85;;;22.00;67.60;;;18.71;85.85;94885.78;4876897;29;20025;-47
2022/08/15 05:48:32;;;;;;;7.50;6.72;;;22.30;67.00;;;18.92;81.71;94880.34;4866546;29;20052;-49
2022/08/15 05:51:37;;;;;;;6.60;5.47;;;22.60;66.30;;;19.12;80.11;94879.50;4876941;29;20087;-47
2022/08/15 05:55:09;;;;;;;7.65;5.78;;;22.90;65.70;;;19.52;79.53;94881.53;4883217;29;20039;-46
2022/08/15 05:58:38;;;;;;;7.65;5.75;;;23.20;64.90;;;19.84;77.18;94876.38;4907709;29;20043;-46
2022/08/15 06:01:41;;;;;;;7.55;5.32;;;23.50;64.00;;;20.05;76.14;94871.56;4914458;29;20026;-48
2022/08/15 06:04:40;;;;;;;;;;;23.80;62.80;;;20.18;74.33;94869.66;4914466;29;20042;-47
2022/08/15 06:07:17;;;;;;;7.03;5.07;;;24.00;62.40;;;20.38;73.87;94864.41;4896306;29;19962;-47
2022/08/15 06:09:59;;;;;;;6.30;4.50;;;24.30;61.40;;;20.54;72.12;94865.25;4878484;29;20411;-45
2022/08/15 06:12:47;;;;;;;6.30;4.70;;;24.40;60.70;;;20.73;71.31;94870.00;4878803;29;20122;-47
2022/08/15 06:15:46;;;;;;;8.90;5.03;;;24.70;60.00;;;20.97;70.57;94866.38;4895046;29;20107;-47
2022/08/15 06:18:17;;;;;;;6.15;3.95;;;24.80;59.50;;;21.18;68.31;94871.53;4863865;29;20036;-51
2022/08/15 06:21:21;;;;;;;5.25;4.13;;;25.00;58.80;;;21.20;67.32;94874.69;4876228;29;20032;-45
2022/08/15 06:24:18;;;;;;;6.18;4.55;;;25.20;58.20;;;21.36;67.34;94872.00;4882799;29;20095;-49
2022/08/15 06:27:13;;;;;;;4.88;3.97;;;25.40;57.70;;;21.33;65.19;94880.81;4914600;29;20081;-48
2022/08/15 06:30:15;;;;;;;5.28;4.20;;;25.60;57.00;;;21.35;65.75;94873.13;4880166;29;20426;-47
2022/08/15 06:33:08;;;;;;;5.10;4.05;;;25.80;56.50;;;21.39;66.78;94874.03;4903779;29;20030;-48
2022/08/15 06:36:15;;;;;;;6.57;4.40;;;25.90;55.90;;;21.74;64.86;94875.97;4894702;29;20036;-47
2022/08/15 06:39:39;;;;;;;3.88;3.47;;;26.10;55.70;;;21.77;60.79;94872.56;4894801;29;20023;-49
2022/08/15 06:42:40;;;;;;;4.28;2.80;;;26.30;55.40;;;22.10;60.34;94870.22;4903827;29;20032;-49
2022/08/15 06:45:35;;;;;;;5.97;3.33;;;26.50;54.00;;;22.48;60.01;94865.19;4895699;29;20064;-51
2022/08/15 06:48:35;;;;;;;3.85;3.28;;;26.80;53.80;;;22.64;59.98;94866.66;4885514;29;20488;-51
2022/08/15 06:51:06;;;;;;;3.42;2.85;;;27.10;53.20;;;22.64;57.33;94860.47;4913606;29;20035;-51
2022/08/15 06:53:58;;;;;;;4.10;2.80;;;27.30;51.90;;;22.68;57.54;94869.44;4896938;29;20593;-51
2022/08/15 06:56:51;;;;;;;2.70;2.50;;;27.50;51.50;;;22.80;56.95;94868.50;4915677;29;20151;-51
2022/08/15 06:59:50;;;;;;;3.80;2.83;;;27.60;50.70;;;22.93;56.61;94871.84;4917536;29;20031;-48
2022/08/15 07:02:21;;;;;;;3.58;2.60;;;27.80;50.40;;;22.98;55.84;94868.88;4902653;29;20024;-50
2022/08/15 07:05:24;;;;;;;4.90;3.80;;;28.00;49.80;;;22.90;58.09;94867.91;4914498;29;20441;-48
2022/08/15 07:08:43;;;;;;;4.78;3.80;;;28.20;49.50;;;23.23;57.59;94877.47;4901100;29;20106;-49
2022/08/15 07:11:46;;;;;;;5.45;3.78;;;28.40;49.60;;;23.64;57.55;94869.56;4901853;29;20035;-47
2022/08/15 07:14:47;;;;;;;4.55;4.03;;;28.60;49.10;;;23.89;56.94;94869.97;4900852;29;20479;-47
2022/08/15 07:18:06;;;;;;;3.80;3.50;;;28.90;48.90;;;24.33;55.21;94869.38;4916656;29;20031;-52
2022/08/15 07:20:37;;;;;;;5.35;3.80;;;29.20;48.50;;;24.43;53.89;94872.25;4916744;29;20840;-46
2022/08/15 07:23:22;;;;;;;4.05;3.65;;;29.60;47.60;;;24.58;53.67;94867.78;4899872;29;20028;-52
2022/08/15 07:25:53;;;;;;;4.68;3.88;;;29.80;47.10;;;24.81;54.77;94859.47;4915250;29;20629;-49
2022/08/15 07:28:30;;;;;;;4.85;3.78;;;30.00;46.60;;;25.04;52.40;94861.25;4899894;29;20078;-49
2022/08/15 07:31:20;;;;;;;5.07;3.90;;;30.30;45.80;;;25.23;52.74;94858.34;4900288;29;20086;-51
2022/08/15 07:33:52;;;;;;;4.25;3.53;;;30.60;45.70;;;25.09;52.39;94858.97;4900120;29;20027;-48
2022/08/15 07:36:31;;;;;;;6.38;3.70;;;30.80;45.00;;;25.07;53.25;94855.84;4916423;29;20041;-50
2022/08/15 07:39:43;;;;;;;4.40;2.75;;;30.90;44.80;;;25.22;49.68;94850.53;4900155;29;20122;-48
2022/08/15 07:42:21;;;;;;;3.58;3.28;;;30.90;44.00;;;25.33;50.75;94846.75;4900166;29;20035;-48
2022/08/15 07:45:00;;;;;;;4.18;2.75;;;31.20;43.40;;;25.73;47.04;94847.03;4916770;29;20487;-51
2022/08/15 07:47:41;;;;;;;5.30;3.25;;;31.40;42.40;;;26.00;47.06;94845.69;4916023;29;20058;-48
2022/08/15 07:50:52;;;;;;;3.20;2.90;;;31.70;41.90;;;25.95;46.82;94848.78;4901032;29;20106;-46
2022/08/15 07:53:31;;;;;;;3.42;2.95;;;31.90;41.60;;;25.63;46.25;94848.53;4900760;29;20418;-53
2022/08/15 07:56:33;;;;;;;3.20;2.90;;;32.10;40.30;;;26.14;46.71;94849.69;4883375;29;20023;-52
2022/08/15 07:59:23;;;;;;;3.10;2.85;;;32.20;40.10;;;26.34;45.92;94850.94;4895373;29;20039;-52
2022/08/15 08:02:58;;;;;;;4.18;3.05;;;32.40;39.50;;;26.61;43.55;94845.22;4916260;29;20032;-50
2022/08/15 08:05:42;;;;;;;3.35;2.90;;;32.50;39.00;;;26.88;43.21;94840.97;4907621;29;20039;-48
2022/08/15 08:08:09;;;;;;;3.20;2.78;;;32.70;38.20;;;27.00;44.07;94839.84;4880717;29;20031;-48
2022/08/15 08:11:00;;;;;;;3.35;3.05;;;32.90;38.20;;;27.12;42.56;94846.88;4880943;29;20075;-51
2022/08/15 08:14:22;;;;;;;3.92;3.20;;;33.10;37.70;;;27.46;41.62;94841.88;4880985;29;20028;-49
2022/08/15 08:17:39;;;;;;;4.85;3.00;;;33.50;37.40;;;27.82;41.53;94833.66;4897089;29;20032;-52
2022/08/15 08:20:36;;;;;;;5.40;3.15;;;33.80;36.70;;;28.23;41.29;94836.66;4893776;29;20044;-53
2022/08/15 08:24:00;;;;;;;3.38;3.08;;;34.20;36.50;;;28.31;40.49;94832.75;4895880;29;20039;-53
2022/08/15 08:27:07;;;;;;;3.88;3.53;;;34.60;36.20;;;28.34;40.78;94831.16;4892680;29;20040;-54
2022/08/15 08:30:18;;;;;;;8.93;3.10;;;34.90;35.40;;;28.50;42.01;94831.50;4897064;29;20032;-56
2022/08/15 08:33:32;;;;;;;4.88;3.10;;;35.00;35.30;;;28.68;40.12;94838.88;4896983;29;20024;-54
2022/08/15 08:37:01;;;;;;;3.65;3.17;;;35.30;34.90;;;28.83;39.03;94824.72;4893871;29;20048;-51
2022/08/15 08:43:31;;;;;;;4.82;3.90;;;35.50;33.80;;;28.38;40.35;94826.44;4905576;29;20086;-52
2022/08/15 08:46:28;;;;;;;3.65;3.35;;;35.60;33.30;;;28.68;40.22;94822.44;4913679;29;20039;-56
2022/08/15 08:49:50;;;;;;;4.13;3.50;;;35.60;33.10;;;29.03;38.48;94811.28;4898400;29;20015;-56
2022/08/15 08:52:53;;;;;;;4.82;3.00;;;35.70;32.90;;;29.41;39.44;94818.84;4888939;29;20513;-51
2022/08/15 08:55:53;;;;;;;4.30;3.40;;;35.90;32.80;;;29.52;38.32;94820.31;4898094;29;20031;-47
2022/08/15 08:58:49;;;;;;;3.75;3.17;;;36.10;32.30;;;29.75;38.06;94818.97;4901311;29;20070;-53
2022/08/15 09:01:26;;;;;;;3.67;3.00;;;36.20;32.30;;;30.18;36.99;94813.81;4883303;29;20027;-53
2022/08/15 09:04:16;;;;;;;4.93;3.17;;;36.50;31.90;;;30.28;37.38;94811.38;4898268;29;20028;-51
2022/08/15 09:06:48;;;;;;;3.45;2.75;;;36.60;31.80;;;29.80;35.49;94806.75;4895839;29;20028;-53
2022/08/15 09:09:43;;;;;;;3.13;2.70;;;36.80;30.80;;;29.61;36.42;94814.38;4880087;29;20039;-52
2022/08/15 09:15:32;;;;;;;3.97;2.90;;;35.90;30.60;;;29.00;37.82;94806.56;4882398;29;20050;-48
2022/08/15 09:18:14;;;;;;;5.00;2.97;;;35.50;30.90;;;29.15;38.09;94804.56;4895585;29;20083;-48
2022/08/15 09:20:42;;;;;;;3.97;3.33;;;35.60;30.70;;;29.43;35.79;94797.28;4880120;29;20034;-48
2022/08/15 09:23:15;;;;;;;3.50;3.20;;;35.70;30.40;;;29.74;37.03;94800.91;4879422;29;20031;-49
2022/08/15 09:26:27;;;;;;;7.78;3.53;;;35.80;30.20;;;30.26;36.56;94802.75;4848370;29;20084;-51
2022/08/15 09:29:25;;;;;;;3.88;3.47;;;36.10;30.30;;;30.06;35.02;94808.06;4914007;29;20034;-54
2022/08/15 09:32:28;;;;;;;3.15;2.67;;;36.40;29.90;;;30.74;35.12;94804.50;4889675;29;20023;-51
2022/08/15 09:35:45;;;;;;;4.07;3.47;;;36.70;30.00;;;31.02;33.51;94804.13;4907962;29;20028;-53
2022/08/15 09:38:50;;;;;;;4.50;3.03;;;37.10;30.00;;;31.39;34.27;94804.38;4910415;29;20055;-48
2022/08/15 09:42:11;;;;;;;3.30;2.95;;;37.50;29.60;;;31.72;34.92;94797.16;4909778;29;20114;-49
2022/08/15 09:45:34;;;;;;;4.18;2.85;;;37.90;29.40;;;31.79;33.94;94805.28;4898376;29;20852;-53
2022/08/15 09:48:22;;;;;;;3.70;3.28;;;38.20;29.10;;;32.05;33.29;94803.63;4907787;29;20050;-52
2022/08/15 09:51:26;;;;;;;5.68;3.50;;;38.40;28.80;;;32.35;32.35;94794.41;4904566;29;20034;-53
2022/08/15 09:54:22;;;;;;;6.10;3.75;;;38.80;28.60;;;32.70;30.74;94790.16;4910495;29;20031;-49
2022/08/15 09:56:51;;;;;;;6.13;3.10;;;39.10;28.00;;;32.77;31.63;94786.44;4921252;29;20122;-50
2022/08/15 09:59:25;;;;;;;6.05;3.40;;;39.40;27.60;;;32.95;30.28;94781.31;4895222;29;20045;-55
2022/08/15 10:02:26;;;;;;;4.63;3.53;;;39.60;27.20;;;33.13;30.18;94780.94;4889240;29;20158;-52
2022/08/15 10:04:59;;;;;;;5.70;3.42;;;39.80;27.10;;;33.42;29.96;94776.72;4898551;29;20027;-53
2022/08/15 10:07:58;;;;;;;5.30;3.30;;;40.10;26.60;;;33.56;29.77;94776.38;4924362;29;20026;-52
2022/08/15 10:10:34;;;;;;;4.57;3.67;;;40.40;26.80;;;33.36;30.38;94777.22;4922967;29;20027;-54
2022/08/15 10:13:47;;;;;;;4.70;3.33;;;40.60;26.40;;;33.10;30.17;94781.03;4921805;29;20138;-55
2022/08/15 10:16:41;;;;;;;4.47;3.42;;;40.70;26.00;;;33.33;29.23;94777.31;4873789;29;20099;-54
2022/08/15 10:19:39;;;;;;;4.63;3.30;;;40.80;25.90;;;33.70;29.11;94775.25;4848810;29;20037;-51
2022/08/15 10:22:23;;;;;;;4.25;3.47;;;40.80;25.80;;;33.89;28.83;94766.06;4903801;29;20481;-50
2022/08/15 10:25:17;;;;;;;3.88;3.58;;;40.90;25.40;;;33.50;28.91;94761.53;4913932;29;20020;-51
2022/08/15 10:28:05;;;;;;;4.85;3.25;;;41.10;25.00;;;33.16;29.50;94757.25;4912315;29;20039;-49
2022/08/15 10:30:51;;;;;;;4.15;3.20;;;41.00;25.00;;;32.96;29.09;94762.78;4913054;29;20095;-50
2022/08/15 10:33:32;;;;;;;4.70;3.25;;;40.80;24.60;;;33.02;29.47;94743.78;4902019;29;20045;-50
2022/08/15 10:36:24;;;;;;;4.10;3.58;;;40.50;24.70;;;33.16;30.50;94751.72;4895061;29;20035;-54
2022/08/15 10:39:21;;;;;;;;;;;40.40;25.00;;;33.06;29.28;94747.22;4879003;29;20028;-52
2022/08/15 10:42:42;;;;;;;4.97;3.63;;;40.50;25.40;;;33.46;28.77;94733.25;4895153;29;19975;-51
2022/08/15 10:45:36;;;;;;;3.97;3.58;;;40.60;25.10;;;33.36;30.15;94727.56;4894885;29;20039;-50
2022/08/15 10:49:02;;;;;;;5.20;3.70;;;40.70;25.10;;;33.75;28.88;94725.00;4878462;29;20181;-49
2022/08/15 10:51:40;;;;;;;7.40;3.50;;;40.50;24.90;;;33.54;28.68;94721.63;4895140;29;20374;-53
2022/08/15 10:54:56;;;;;;;4.50;3.25;;;40.50;24.80;;;33.67;29.39;94723.66;4895010;29;20039;-51
2022/08/15 10:57:59;;;;;;;3.85;3.17;;;40.50;25.00;;;33.69;28.63;94719.25;4894893;29;20152;-45
2022/08/15 11:01:04;;;;;;;4.32;3.92;;;40.70;24.70;;;33.69;29.00;94713.75;4890556;29;20043;-48
2022/08/15 11:03:59;;;;;;;4.30;3.90;;;40.90;24.60;;;33.82;28.26;94705.50;4913582;29;20390;-45
2022/08/15 11:06:30;;;;;;;3.30;3.00;;;41.20;24.50;;;34.05;27.44;94710.00;4892160;29;20039;-45
2022/08/15 11:09:05;;;;;;;3.65;3.35;;;41.50;24.00;;;34.74;25.72;94715.09;4877942;29;20020;-46
2022/08/15 11:12:05;;;;;;;5.40;3.20;;;41.80;23.70;;;34.50;26.88;94714.63;4878525;29;20032;-48
2022/08/15 11:14:43;;;;;;;4.25;3.30;;;42.00;23.20;;;34.35;26.77;94705.19;4878261;29;20024;-46
2022/08/15 11:17:23;;;;;;;4.65;4.25;;;41.80;23.20;;;34.18;26.67;94697.00;4888680;29;20026;-51
2022/08/15 11:19:52;;;;;;;5.40;4.15;;;42.00;23.20;;;34.56;26.22;94706.59;4912462;29;20030;-46
2022/08/15 11:23:00;;;;;;;5.53;3.90;;;42.20;23.00;;;35.09;26.48;94696.63;4903193;29;20495;-48
2022/08/15 11:25:43;;;;;;;4.35;4.05;;;42.40;23.10;;;35.20;26.56;94685.97;4908945;29;20046;-47
2022/08/15 11:28:28;;;;;;;4.93;4.53;;;42.80;23.00;;;35.07;26.30;94690.78;4893658;29;20024;-52
2022/08/15 11:31:18;;;;;;;4.25;3.85;;;43.10;22.70;;;35.00;26.54;94688.97;4893507;29;20118;-46
2022/08/15 11:33:54;;;;;;;4.22;3.83;;;43.30;22.50;;;34.78;26.93;94679.81;4923975;29;20035;-47